Terminal Aerodrome Forecast
Issued by NWS Charleston, WV

Current Version | Previous Version | Graphics & Text | Print | Product List | Glossary On
Versions: 1 2 3 4 5 6 7 8 9 10 11 12 13 14 15 16 17 18 19 20 21 22
000
FTUS41 KRLX 170200 AAA
TAFHTS
TAF AMD
KHTS 170247Z 1703/1724 16007KT P6SM BKN040
     FM170900 20006KT 5SM -SHRA BR BKN020
     FM171500 27004KT 6SM HZ BKN020
     FM171800 29004KT P6SM SCT025
     FM172200 32004KT P6SM SCT035=

USA.gov is the U.S. government's official web portal to all federal, state and local government web resources and services.